createdAt,value
2023-04-28T00:00:33.156Z,431.00
2023-04-28T00:01:33.154Z,431.00
2023-04-28T00:02:33.279Z,432.00
2023-04-28T00:03:33.425Z,432.00
2023-04-28T00:04:33.808Z,434.00
2023-04-28T00:05:33.244Z,432.00
2023-04-28T00:06:33.290Z,434.00
2023-04-28T00:07:33.364Z,432.00
2023-04-28T00:08:33.373Z,433.00
2023-04-28T00:09:33.381Z,431.00
2023-04-28T00:10:33.431Z,430.00
2023-04-28T00:11:33.505Z,426.00
2023-04-28T00:12:33.469Z,426.00
2023-04-28T00:13:33.515Z,425.00
2023-04-28T00:14:33.554Z,428.00
2023-04-28T00:15:33.628Z,428.00
2023-04-28T00:16:33.633Z,429.00
2023-04-28T00:17:33.726Z,428.00
2023-04-28T00:18:33.700Z,429.00
2023-04-28T00:19:33.711Z,429.00
2023-04-28T00:20:33.725Z,427.00
2023-04-28T00:21:33.738Z,429.00
2023-04-28T00:22:33.822Z,428.00
2023-04-28T00:23:33.880Z,427.00
2023-04-28T00:24:33.899Z,424.00
2023-04-28T00:25:33.910Z,426.00
2023-04-28T00:26:33.947Z,425.00
2023-04-28T00:27:34.012Z,425.00
2023-04-28T00:28:34.889Z,427.00
2023-04-28T00:29:34.020Z,430.00
2023-04-28T00:30:34.084Z,430.00
2023-04-28T00:31:34.155Z,428.00
2023-04-28T00:32:34.162Z,426.00
2023-04-28T00:33:34.199Z,424.00
2023-04-28T00:34:34.224Z,425.00
2023-04-28T00:35:34.288Z,424.00
2023-04-28T00:36:34.269Z,425.00
2023-04-28T00:37:34.326Z,425.00
2023-04-28T00:38:34.385Z,426.00
2023-04-28T00:39:34.408Z,428.00
2023-04-28T00:40:34.451Z,428.00
2023-04-28T00:41:34.457Z,428.00
2023-04-28T00:42:34.531Z,427.00
2023-04-28T00:43:34.571Z,427.00
2023-04-28T00:44:34.623Z,427.00
2023-04-28T00:45:34.667Z,429.00
2023-04-28T00:46:34.710Z,429.00
2023-04-28T00:47:34.736Z,428.00
2023-04-28T00:48:34.767Z,428.00
2023-04-28T00:49:34.772Z,429.00
2023-04-28T00:50:34.819Z,430.00
2023-04-28T00:51:34.903Z,431.00
2023-04-28T00:52:34.948Z,431.00
2023-04-28T00:53:34.929Z,428.00
2023-04-28T00:54:35.043Z,429.00
2023-04-28T00:55:35.062Z,429.00
2023-04-28T00:56:35.068Z,430.00
2023-04-28T00:57:35.137Z,428.00
2023-04-28T00:58:35.189Z,428.00
2023-04-28T00:59:35.217Z,428.00
2023-04-28T01:00:35.277Z,425.00
2023-04-28T01:01:35.332Z,424.00
2023-04-28T01:02:35.499Z,424.00
2023-04-28T01:03:35.555Z,423.00
2023-04-28T01:04:35.530Z,425.00
2023-04-28T01:05:35.511Z,423.00
2023-04-28T01:06:35.524Z,424.00
2023-04-28T01:07:35.599Z,425.00
2023-04-28T01:08:35.621Z,428.00
2023-04-28T01:09:35.685Z,429.00
2023-04-28T01:10:35.740Z,426.00
2023-04-28T01:11:35.744Z,425.00
2023-04-28T01:12:35.803Z,423.00
2023-04-28T01:13:35.854Z,423.00
2023-04-28T01:14:35.866Z,420.00
2023-04-28T01:15:35.900Z,418.00
2023-04-28T01:16:35.992Z,416.00
2023-04-28T01:17:36.094Z,416.00
2023-04-28T01:18:36.045Z,418.00
2023-04-28T01:19:36.097Z,416.00
2023-04-28T01:20:36.117Z,417.00
2023-04-28T01:21:36.174Z,416.00
2023-04-28T01:22:36.232Z,417.00
2023-04-28T01:23:36.292Z,417.00
2023-04-28T01:24:36.304Z,416.00
2023-04-28T01:25:36.352Z,415.00
2023-04-28T01:26:36.412Z,416.00
2023-04-28T01:27:36.421Z,415.00
2023-04-28T01:28:36.491Z,415.00
2023-04-28T01:29:36.506Z,416.00
2023-04-28T01:30:36.591Z,416.00
2023-04-28T01:31:36.638Z,416.00
2023-04-28T01:32:36.690Z,417.00
2023-04-28T01:33:36.733Z,416.00
2023-04-28T01:34:36.778Z,417.00
2023-04-28T01:35:36.771Z,417.00
2023-04-28T01:36:37.799Z,416.00
2023-04-28T01:37:36.899Z,416.00
2023-04-28T01:38:36.880Z,417.00
2023-04-28T01:39:36.965Z,416.00
2023-04-28T01:40:37.023Z,413.00
2023-04-28T01:41:37.039Z,411.00
2023-04-28T01:42:37.080Z,409.00
2023-04-28T01:43:37.137Z,411.00
2023-04-28T01:44:37.202Z,413.00
2023-04-28T01:45:37.234Z,414.00
2023-04-28T01:46:37.383Z,414.00
2023-04-28T01:47:37.350Z,413.00
2023-04-28T01:48:37.378Z,411.00
2023-04-28T01:49:37.438Z,416.00
2023-04-28T01:50:37.473Z,415.00
2023-04-28T01:51:37.517Z,416.00
2023-04-28T01:52:37.596Z,418.00
2023-04-28T01:53:37.675Z,418.00
2023-04-28T01:54:37.704Z,418.00
2023-04-28T01:55:37.710Z,417.00
2023-04-28T01:56:37.801Z,415.00
2023-04-28T01:57:37.844Z,416.00
2023-04-28T01:58:37.882Z,417.00
2023-04-28T01:59:37.922Z,416.00
2023-04-28T02:00:38.046Z,414.00
2023-04-28T02:01:38.010Z,415.00
2023-04-28T02:02:38.131Z,414.00
2023-04-28T02:03:38.248Z,414.00
2023-04-28T02:04:38.190Z,415.00
2023-04-28T02:05:38.204Z,416.00
2023-04-28T02:06:38.276Z,414.00
2023-04-28T02:07:38.349Z,416.00
2023-04-28T02:08:38.400Z,418.00
2023-04-28T02:09:38.426Z,417.00
2023-04-28T02:10:38.468Z,415.00
2023-04-28T02:11:38.516Z,416.00
2023-04-28T02:12:38.567Z,418.00
2023-04-28T02:13:38.630Z,421.00
2023-04-28T02:14:38.677Z,423.00
2023-04-28T02:15:38.784Z,424.00
2023-04-28T02:16:38.760Z,424.00
2023-04-28T02:17:38.907Z,426.00
2023-04-28T02:18:38.918Z,426.00
2023-04-28T02:19:38.944Z,426.00
2023-04-28T02:20:38.987Z,422.00
2023-04-28T02:21:39.016Z,424.00
2023-04-28T02:22:39.095Z,423.00
2023-04-28T02:23:39.123Z,418.00
2023-04-28T02:24:39.225Z,419.00
2023-04-28T02:25:39.242Z,420.00
2023-04-28T02:26:39.283Z,420.00
2023-04-28T02:27:39.367Z,421.00
2023-04-28T02:28:39.459Z,420.00
2023-04-28T02:29:39.450Z,421.00
2023-04-28T02:30:39.567Z,422.00
2023-04-28T02:31:39.603Z,424.00
2023-04-28T02:32:39.688Z,426.00
2023-04-28T02:33:39.650Z,425.00
2023-04-28T02:34:39.713Z,424.00
2023-04-28T02:35:39.804Z,425.00
2023-04-28T02:36:39.828Z,427.00
2023-04-28T02:37:39.871Z,426.00
2023-04-28T02:38:39.986Z,425.00
2023-04-28T02:39:40.039Z,425.00
2023-04-28T02:40:40.068Z,426.00
2023-04-28T02:41:40.160Z,428.00
2023-04-28T02:42:40.184Z,427.00
2023-04-28T02:43:40.267Z,426.00
2023-04-28T02:44:40.330Z,424.00
2023-04-28T02:45:40.383Z,427.00
2023-04-28T02:46:40.460Z,426.00
2023-04-28T02:47:40.491Z,425.00
2023-04-28T02:48:40.543Z,426.00
2023-04-28T02:49:40.614Z,425.00
2023-04-28T02:50:40.665Z,427.00
2023-04-28T02:51:40.728Z,427.00
2023-04-28T02:52:40.842Z,425.00
2023-04-28T02:53:40.846Z,424.00
2023-04-28T02:54:40.907Z,422.00
2023-04-28T02:55:40.957Z,421.00
2023-04-28T02:56:41.038Z,420.00
2023-04-28T02:57:41.121Z,421.00
2023-04-28T02:58:41.202Z,422.00
2023-04-28T02:59:41.220Z,422.00
2023-04-28T03:00:41.313Z,423.00
2023-04-28T03:01:41.437Z,422.00
2023-04-28T03:02:41.534Z,421.00
2023-04-28T03:03:41.591Z,421.00
2023-04-28T03:04:41.618Z,423.00
2023-04-28T03:05:41.583Z,423.00
2023-04-28T03:06:41.658Z,425.00
2023-04-28T03:07:41.716Z,427.00
2023-04-28T03:08:41.767Z,430.00
2023-04-28T03:09:42.421Z,430.00
2023-04-28T03:10:41.917Z,429.00
2023-04-28T03:11:41.963Z,428.00
2023-04-28T03:12:42.020Z,429.00
2023-04-28T03:13:42.081Z,428.00
2023-04-28T03:14:42.161Z,429.00
2023-04-28T03:15:42.214Z,427.00
2023-04-28T03:16:42.460Z,425.00
2023-04-28T03:17:42.393Z,423.00
2023-04-28T03:18:42.386Z,423.00
2023-04-28T03:19:42.415Z,422.00
2023-04-28T03:20:42.500Z,421.00
2023-04-28T03:21:42.605Z,419.00
2023-04-28T03:22:42.635Z,416.00
2023-04-28T03:23:42.692Z,415.00
2023-04-28T03:24:42.721Z,412.00
2023-04-28T03:25:42.808Z,414.00
2023-04-28T03:26:42.848Z,418.00
2023-04-28T03:27:42.910Z,418.00
2023-04-28T03:28:43.004Z,419.00
2023-04-28T03:29:42.994Z,418.00
2023-04-28T03:30:43.123Z,420.00
2023-04-28T03:31:43.218Z,418.00
2023-04-28T03:32:43.262Z,417.00
2023-04-28T03:33:43.254Z,418.00
2023-04-28T03:34:43.334Z,418.00
2023-04-28T03:35:43.375Z,420.00
2023-04-28T03:36:43.463Z,419.00
2023-04-28T03:37:43.508Z,420.00
2023-04-28T03:38:43.573Z,418.00
2023-04-28T03:39:43.600Z,416.00
2023-04-28T03:40:43.698Z,418.00
2023-04-28T03:41:43.777Z,417.00
2023-04-28T03:42:43.849Z,417.00
2023-04-28T03:43:43.898Z,415.00
2023-04-28T03:44:43.929Z,414.00
2023-04-28T03:45:44.009Z,417.00
2023-04-28T03:46:44.049Z,417.00
2023-04-28T03:47:44.127Z,418.00
2023-04-28T03:48:44.182Z,418.00
2023-04-28T03:49:44.243Z,419.00
2023-04-28T03:50:44.295Z,419.00
2023-04-28T03:51:44.390Z,419.00
2023-04-28T03:52:44.506Z,418.00
2023-04-28T03:53:44.545Z,418.00
2023-04-28T03:54:44.562Z,418.00
2023-04-28T03:55:44.584Z,416.00
2023-04-28T03:56:44.693Z,414.00
2023-04-28T03:57:44.739Z,413.00
2023-04-28T03:58:44.764Z,415.00
2023-04-28T03:59:44.940Z,415.00
2023-04-28T04:00:44.930Z,417.00
2023-04-28T04:01:44.994Z,415.00
2023-04-28T04:02:45.223Z,417.00
2023-04-28T04:03:45.218Z,416.00
2023-04-28T04:04:45.326Z,416.00
2023-04-28T04:05:45.293Z,419.00
2023-04-28T04:06:45.260Z,421.00
2023-04-28T04:07:45.307Z,422.00
2023-04-28T04:08:45.388Z,422.00
2023-04-28T04:09:45.463Z,422.00
2023-04-28T04:10:45.485Z,423.00
2023-04-28T04:11:45.559Z,424.00
2023-04-28T04:12:45.605Z,426.00
2023-04-28T04:13:45.640Z,427.00
2023-04-28T04:14:45.706Z,429.00
2023-04-28T04:15:45.752Z,428.00
2023-04-28T04:16:45.645Z,429.00
2023-04-28T04:17:45.745Z,428.00
2023-04-28T04:18:45.671Z,428.00
2023-04-28T04:19:45.666Z,433.00
2023-04-28T04:20:45.672Z,434.00
2023-04-28T04:21:45.676Z,434.00
2023-04-28T04:22:45.722Z,436.00
2023-04-28T04:23:45.680Z,436.00
2023-04-28T04:24:45.709Z,436.00
2023-04-28T04:25:45.755Z,438.00
2023-04-28T04:26:45.702Z,438.00
2023-04-28T04:27:45.719Z,439.00
2023-04-28T04:28:45.701Z,442.00
2023-04-28T04:29:45.703Z,443.00
2023-04-28T04:30:45.700Z,442.00
2023-04-28T04:31:45.876Z,444.00
2023-04-28T04:32:45.725Z,445.00
2023-04-28T04:33:45.700Z,446.00
2023-04-28T04:34:45.671Z,445.00
2023-04-28T04:35:45.748Z,448.00
2023-04-28T04:36:45.709Z,449.00
2023-04-28T04:37:45.745Z,452.00
2023-04-28T04:38:45.711Z,449.00
2023-04-28T04:39:45.791Z,448.00
2023-04-28T04:40:45.809Z,448.00
2023-04-28T04:41:45.717Z,448.00
2023-04-28T04:42:45.750Z,448.00
2023-04-28T04:43:45.761Z,450.00
2023-04-28T04:44:45.697Z,448.00
2023-04-28T04:45:45.770Z,449.00
2023-04-28T04:46:45.760Z,449.00
2023-04-28T04:47:45.750Z,448.00
2023-04-28T04:48:45.723Z,449.00
2023-04-28T04:49:45.718Z,449.00
2023-04-28T04:50:45.694Z,448.00
2023-04-28T04:51:45.706Z,449.00
2023-04-28T04:52:45.709Z,449.00
2023-04-28T04:53:45.702Z,451.00
2023-04-28T04:54:45.712Z,451.00
2023-04-28T04:55:45.721Z,451.00
2023-04-28T04:56:45.715Z,450.00
2023-04-28T04:57:45.726Z,451.00
2023-04-28T04:58:45.715Z,451.00
2023-04-28T04:59:45.745Z,452.00
2023-04-28T05:00:45.707Z,450.00
2023-04-28T05:01:45.796Z,450.00
2023-04-28T05:02:46.012Z,448.00
2023-04-28T05:03:45.935Z,446.00
2023-04-28T05:04:45.915Z,447.00
2023-04-28T05:05:46.408Z,448.00
2023-04-28T05:06:45.810Z,448.00
2023-04-28T05:07:45.810Z,452.00
2023-04-28T05:08:45.819Z,453.00
2023-04-28T05:09:45.817Z,453.00
2023-04-28T05:10:45.827Z,453.00
2023-04-28T05:11:45.885Z,455.00
2023-04-28T05:12:48.338Z,457.00
2023-04-28T05:13:45.860Z,456.00
2023-04-28T05:14:45.849Z,455.00
2023-04-28T05:15:45.812Z,455.00
2023-04-28T05:16:45.862Z,453.00
2023-04-28T05:17:45.850Z,453.00
2023-04-28T05:18:45.822Z,453.00
2023-04-28T05:19:45.790Z,453.00
2023-04-28T05:20:45.778Z,450.00
2023-04-28T05:21:45.785Z,451.00
2023-04-28T05:22:45.793Z,452.00
2023-04-28T05:23:45.772Z,451.00
2023-04-28T05:24:45.773Z,453.00
2023-04-28T05:25:45.719Z,452.00
2023-04-28T05:26:45.786Z,451.00
2023-04-28T05:27:45.752Z,450.00
2023-04-28T05:28:45.728Z,449.00
2023-04-28T05:29:45.698Z,449.00
2023-04-28T05:30:45.710Z,448.00
2023-04-28T05:31:45.755Z,450.00
2023-04-28T05:32:45.788Z,456.00
2023-04-28T05:33:45.756Z,470.00
2023-04-28T05:34:45.691Z,480.00
2023-04-28T05:35:45.674Z,488.00
2023-04-28T05:36:45.693Z,487.00
2023-04-28T05:37:46.346Z,524.00
2023-04-28T05:38:45.663Z,544.00
2023-04-28T05:39:45.701Z,537.00
2023-04-28T05:40:45.652Z,545.00
2023-04-28T05:41:45.625Z,559.00
2023-04-28T05:42:45.638Z,557.00
2023-04-28T05:43:45.632Z,568.00
2023-04-28T05:44:45.602Z,585.00
2023-04-28T05:45:45.660Z,597.00
2023-04-28T05:46:45.652Z,610.00
2023-04-28T05:47:45.679Z,629.00
2023-04-28T05:48:46.300Z,669.00
2023-04-28T05:49:45.577Z,682.00
2023-04-28T05:50:45.587Z,688.00
2023-04-28T05:51:45.578Z,694.00
2023-04-28T05:52:45.601Z,692.00
2023-04-28T05:53:45.553Z,693.00
2023-04-28T05:54:45.576Z,691.00
2023-04-28T05:55:45.554Z,688.00
2023-04-28T05:56:45.580Z,766.00
2023-04-28T05:57:52.976Z,697.00
2023-04-28T05:58:46.547Z,690.00
2023-04-28T05:59:45.535Z,689.00
2023-04-28T06:00:45.797Z,690.00
2023-04-28T06:01:45.497Z,687.00
2023-04-28T06:02:45.774Z,687.00
2023-04-28T06:03:45.850Z,696.00
2023-04-28T06:04:45.812Z,701.00
2023-04-28T06:05:45.733Z,709.00
2023-04-28T06:06:45.487Z,714.00
2023-04-28T06:07:45.461Z,716.00
2023-04-28T06:08:45.496Z,723.00
2023-04-28T06:09:45.462Z,735.00
2023-04-28T06:10:45.512Z,747.00
2023-04-28T06:11:45.439Z,750.00
2023-04-28T06:12:45.419Z,760.00
2023-04-28T06:13:45.445Z,764.00
2023-04-28T06:14:45.428Z,770.00
2023-04-28T06:15:45.467Z,774.00
2023-04-28T06:16:45.453Z,778.00
2023-04-28T06:17:45.490Z,785.00
2023-04-28T06:18:46.515Z,786.00
2023-04-28T06:19:45.479Z,787.00
2023-04-28T06:20:45.468Z,790.00
2023-04-28T06:21:45.447Z,796.00
2023-04-28T06:22:45.451Z,800.00
2023-04-28T06:23:45.506Z,805.00
2023-04-28T06:24:45.476Z,811.00
2023-04-28T06:25:45.545Z,812.00
2023-04-28T06:26:45.859Z,818.00
2023-04-28T06:27:45.591Z,823.00
2023-04-28T06:28:45.642Z,825.00
2023-04-28T06:29:45.655Z,828.00
2023-04-28T06:30:45.707Z,828.00
2023-04-28T06:31:45.824Z,826.00
2023-04-28T06:32:45.902Z,827.00
2023-04-28T06:33:45.878Z,830.00
2023-04-28T06:34:45.942Z,835.00
2023-04-28T06:35:46.061Z,846.00
2023-04-28T06:36:46.372Z,846.00
2023-04-28T06:37:46.109Z,867.00
2023-04-28T06:38:46.192Z,872.00
2023-04-28T06:39:46.206Z,874.00
2023-04-28T06:40:46.304Z,858.00
2023-04-28T06:41:46.336Z,851.00
2023-04-28T06:42:46.370Z,847.00
2023-04-28T06:43:46.425Z,849.00
2023-04-28T06:44:46.463Z,856.00
2023-04-28T06:45:46.515Z,861.00
2023-04-28T06:46:46.912Z,868.00
2023-04-28T06:47:46.659Z,872.00
2023-04-28T06:48:46.630Z,870.00
2023-04-28T06:49:46.733Z,891.00
2023-04-28T06:50:46.775Z,898.00
2023-04-28T06:51:46.780Z,893.00
2023-04-28T06:52:46.848Z,891.00
2023-04-28T06:53:47.356Z,887.00
2023-04-28T06:54:46.894Z,881.00
2023-04-28T06:55:46.945Z,879.00
2023-04-28T06:56:46.988Z,881.00
2023-04-28T06:57:47.019Z,882.00
2023-04-28T06:58:47.076Z,886.00
2023-04-28T06:59:47.341Z,891.00
2023-04-28T07:00:47.170Z,908.00
2023-04-28T07:01:47.408Z,911.00
2023-04-28T07:02:47.325Z,907.00
2023-04-28T07:03:47.262Z,899.00
2023-04-28T07:04:47.223Z,895.00
2023-04-28T07:05:47.269Z,886.00
2023-04-28T07:06:47.369Z,884.00
2023-04-28T07:07:47.345Z,885.00
2023-04-28T07:08:47.365Z,885.00
2023-04-28T07:09:47.825Z,884.00
2023-04-28T07:10:47.412Z,894.00
2023-04-28T07:11:47.450Z,900.00
2023-04-28T07:12:47.450Z,895.00
2023-04-28T07:13:47.515Z,894.00
2023-04-28T07:14:47.559Z,897.00
2023-04-28T07:15:47.561Z,899.00
2023-04-28T07:16:47.611Z,900.00
2023-04-28T07:17:47.634Z,901.00
2023-04-28T07:18:47.627Z,900.00
2023-04-28T07:19:47.613Z,900.00
2023-04-28T07:20:47.639Z,900.00
2023-04-28T07:21:47.718Z,900.00
2023-04-28T07:22:47.665Z,897.00
2023-04-28T07:23:47.714Z,895.00
2023-04-28T07:24:47.716Z,889.00
2023-04-28T07:25:47.734Z,892.00
2023-04-28T07:26:47.759Z,901.00
2023-04-28T07:27:47.691Z,901.00
2023-04-28T07:28:47.759Z,901.00
2023-04-28T07:29:47.712Z,899.00
2023-04-28T07:30:48.002Z,901.00
2023-04-28T07:31:47.853Z,819.00
2023-04-28T07:32:47.840Z,862.00
2023-04-28T07:33:48.341Z,753.00
2023-04-28T07:34:47.888Z,779.00
2023-04-28T07:35:47.850Z,807.00
2023-04-28T07:36:47.854Z,810.00
2023-04-28T07:37:47.846Z,809.00
2023-04-28T07:38:47.839Z,798.00
2023-04-28T07:39:47.831Z,742.00
2023-04-28T07:40:47.869Z,736.00
2023-04-28T07:41:47.823Z,725.00
2023-04-28T07:42:47.885Z,720.00
2023-04-28T07:43:48.037Z,713.00
2023-04-28T07:44:47.977Z,705.00
2023-04-28T07:45:48.062Z,697.00
2023-04-28T07:46:49.023Z,688.00
2023-04-28T07:47:48.228Z,675.00
2023-04-28T07:48:48.252Z,666.00
2023-04-28T07:49:48.277Z,656.00
2023-04-28T07:50:48.324Z,643.00
2023-04-28T07:51:48.430Z,635.00
2023-04-28T07:52:48.450Z,629.00
2023-04-28T07:53:48.510Z,624.00
2023-04-28T07:54:48.573Z,620.00
2023-04-28T07:55:48.626Z,610.00
2023-04-28T07:56:48.695Z,600.00
2023-04-28T07:57:48.794Z,593.00
2023-04-28T07:58:48.829Z,585.00
2023-04-28T07:59:50.315Z,578.00
2023-04-28T08:00:48.909Z,577.00
2023-04-28T08:01:49.004Z,571.00
2023-04-28T08:02:49.188Z,569.00
2023-04-28T08:03:49.324Z,562.00
2023-04-28T08:04:49.338Z,558.00
2023-04-28T08:05:49.328Z,551.00
2023-04-28T08:06:49.362Z,541.00
2023-04-28T08:07:49.423Z,533.00
2023-04-28T08:08:49.473Z,530.00
2023-04-28T08:09:49.674Z,526.00
2023-04-28T08:10:49.574Z,521.00
2023-04-28T08:11:49.601Z,520.00
2023-04-28T08:12:49.657Z,519.00
2023-04-28T08:13:49.749Z,517.00
2023-04-28T08:14:49.749Z,518.00
2023-04-28T08:15:49.932Z,516.00
2023-04-28T08:16:49.867Z,517.00
2023-04-28T08:17:49.973Z,517.00
2023-04-28T08:18:50.047Z,516.00
2023-04-28T08:19:50.585Z,516.00
2023-04-28T08:20:50.135Z,516.00
2023-04-28T08:21:50.164Z,516.00
2023-04-28T08:22:50.223Z,517.00
2023-04-28T08:23:50.291Z,518.00
2023-04-28T08:24:50.367Z,518.00
2023-04-28T08:25:50.391Z,519.00
2023-04-28T08:26:50.477Z,526.00
2023-04-28T08:27:50.469Z,531.00
2023-04-28T08:28:50.517Z,534.00
2023-04-28T08:29:50.599Z,537.00
2023-04-28T08:30:50.648Z,537.00
2023-04-28T08:31:50.697Z,509.00
2023-04-28T08:32:50.691Z,525.00
2023-04-28T08:33:50.646Z,514.00
2023-04-28T08:34:50.697Z,502.00
2023-04-28T08:35:50.819Z,495.00
2023-04-28T08:36:50.712Z,487.00
2023-04-28T08:37:50.726Z,440.00
2023-04-28T08:38:50.808Z,474.00
2023-04-28T08:39:50.807Z,481.00
2023-04-28T08:40:50.795Z,489.00
2023-04-28T08:41:50.900Z,498.00
2023-04-28T08:42:50.923Z,524.00
2023-04-28T08:43:50.939Z,536.00
2023-04-28T08:44:50.940Z,541.00
2023-04-28T08:45:50.971Z,547.00
2023-04-28T08:46:51.053Z,551.00
2023-04-28T08:47:51.119Z,556.00
2023-04-28T08:48:51.167Z,561.00
2023-04-28T08:49:51.264Z,612.00
2023-04-28T08:50:51.178Z,590.00
2023-04-28T08:51:51.190Z,588.00
2023-04-28T08:52:51.203Z,585.00
2023-04-28T08:54:15.002Z,590.00
2023-04-28T08:54:52.194Z,592.00
2023-04-28T08:55:51.216Z,588.00
2023-04-28T08:56:51.210Z,588.00
2023-04-28T08:57:51.240Z,596.00
2023-04-28T08:58:51.261Z,601.00
2023-04-28T08:59:51.188Z,600.00
2023-04-28T09:00:51.147Z,623.00
2023-04-28T09:01:51.195Z,621.00
2023-04-28T09:02:51.238Z,618.00
2023-04-28T09:03:51.326Z,615.00
2023-04-28T09:04:51.322Z,609.00
2023-04-28T09:05:51.203Z,609.00
2023-04-28T09:06:51.226Z,610.00
2023-04-28T09:07:51.232Z,615.00
2023-04-28T09:08:51.258Z,620.00
2023-04-28T09:09:51.274Z,623.00
2023-04-28T09:10:51.329Z,625.00
2023-04-28T09:11:51.325Z,625.00
2023-04-28T09:12:51.299Z,626.00
2023-04-28T09:13:51.297Z,625.00
2023-04-28T09:14:51.345Z,631.00
2023-04-28T09:15:51.344Z,634.00
2023-04-28T09:16:51.400Z,636.00
2023-04-28T09:17:51.350Z,638.00
2023-04-28T09:18:51.339Z,638.00
2023-04-28T09:19:51.390Z,637.00
2023-04-28T09:20:51.327Z,639.00
2023-04-28T09:21:51.365Z,646.00
2023-04-28T09:22:51.399Z,653.00
2023-04-28T09:23:51.477Z,670.00
2023-04-28T09:24:51.346Z,674.00
2023-04-28T09:25:51.329Z,676.00
2023-04-28T09:26:52.150Z,682.00
2023-04-28T09:27:51.336Z,680.00
2023-04-28T09:28:51.348Z,686.00
2023-04-28T09:29:51.361Z,686.00
2023-04-28T09:30:51.362Z,678.00
2023-04-28T09:31:51.378Z,674.00
2023-04-28T09:32:51.478Z,672.00
2023-04-28T09:33:51.334Z,665.00
2023-04-28T09:34:51.380Z,663.00
2023-04-28T09:35:53.022Z,663.00
2023-04-28T09:36:51.400Z,659.00
2023-04-28T09:37:51.444Z,659.00
2023-04-28T09:38:51.392Z,661.00
2023-04-28T09:39:51.427Z,660.00
2023-04-28T09:40:51.512Z,665.00
2023-04-28T09:41:51.506Z,665.00
2023-04-28T09:42:51.538Z,664.00
2023-04-28T09:43:51.611Z,666.00
2023-04-28T09:44:51.664Z,669.00
2023-04-28T09:45:51.749Z,671.00
2023-04-28T09:46:51.718Z,672.00
2023-04-28T09:47:51.796Z,671.00
2023-04-28T09:48:51.782Z,670.00
2023-04-28T09:49:51.898Z,669.00
2023-04-28T09:50:51.904Z,669.00
2023-04-28T09:51:51.957Z,667.00
2023-04-28T09:52:52.048Z,665.00
2023-04-28T09:53:52.090Z,663.00
2023-04-28T09:54:52.165Z,662.00
2023-04-28T09:55:52.243Z,664.00
2023-04-28T09:56:52.309Z,665.00
2023-04-28T09:57:52.377Z,665.00
2023-04-28T09:58:52.379Z,667.00
2023-04-28T09:59:52.498Z,670.00
2023-04-28T10:00:52.518Z,673.00
2023-04-28T10:01:52.568Z,671.00
2023-04-28T10:02:52.761Z,675.00
2023-04-28T10:03:52.757Z,676.00
2023-04-28T10:04:52.989Z,674.00
2023-04-28T10:05:52.795Z,670.00
2023-04-28T10:06:52.824Z,668.00
2023-04-28T10:07:52.839Z,668.00
2023-04-28T10:08:52.917Z,669.00
2023-04-28T10:09:52.922Z,667.00
2023-04-28T10:10:53.036Z,667.00
2023-04-28T10:11:53.092Z,665.00
2023-04-28T10:12:53.108Z,663.00
2023-04-28T10:13:53.164Z,657.00
2023-04-28T10:14:53.202Z,658.00
2023-04-28T10:15:53.306Z,659.00
2023-04-28T10:16:53.338Z,660.00
2023-04-28T10:17:53.455Z,661.00
2023-04-28T10:18:53.432Z,662.00
2023-04-28T10:19:53.484Z,661.00
2023-04-28T10:20:53.513Z,662.00
2023-04-28T10:21:53.577Z,665.00
2023-04-28T10:22:53.662Z,668.00
2023-04-28T10:23:53.701Z,671.00
2023-04-28T10:24:53.794Z,670.00
2023-04-28T10:25:53.789Z,661.00
2023-04-28T10:26:53.855Z,652.00
2023-04-28T10:27:53.908Z,646.00
2023-04-28T10:28:53.985Z,643.00
2023-04-28T10:29:54.091Z,642.00
2023-04-28T10:30:54.093Z,635.00
2023-04-28T10:31:54.137Z,634.00
2023-04-28T10:32:54.297Z,631.00
2023-04-28T10:33:54.261Z,627.00
2023-04-28T10:34:54.321Z,629.00
2023-04-28T10:35:54.394Z,629.00
2023-04-28T10:36:54.500Z,629.00
2023-04-28T10:37:54.492Z,626.00
2023-04-28T10:38:54.582Z,628.00
2023-04-28T10:39:54.674Z,626.00
2023-04-28T10:40:54.729Z,628.00
2023-04-28T10:41:54.731Z,629.00
2023-04-28T10:42:54.832Z,629.00
2023-04-28T10:43:54.907Z,636.00
2023-04-28T10:44:54.971Z,636.00
2023-04-28T10:45:57.393Z,638.00
2023-04-28T10:46:55.011Z,636.00
2023-04-28T10:47:54.987Z,634.00
2023-04-28T10:48:54.980Z,634.00
2023-04-28T10:49:54.956Z,633.00
2023-04-28T10:50:54.944Z,635.00
2023-04-28T10:51:54.916Z,636.00
2023-04-28T10:52:54.909Z,635.00
2023-04-28T10:53:54.970Z,635.00
2023-04-28T10:54:54.916Z,636.00
2023-04-28T10:55:54.867Z,637.00
2023-04-28T10:56:54.929Z,640.00
2023-04-28T10:57:54.896Z,642.00
2023-04-28T10:58:54.919Z,645.00
2023-04-28T10:59:54.918Z,646.00
2023-04-28T11:00:54.856Z,648.00
2023-04-28T11:01:54.911Z,649.00
2023-04-28T11:02:55.049Z,646.00
2023-04-28T11:03:55.275Z,647.00
2023-04-28T11:04:55.043Z,645.00
2023-04-28T11:05:54.873Z,643.00
2023-04-28T11:06:54.858Z,643.00
2023-04-28T11:07:54.857Z,644.00
2023-04-28T11:08:54.797Z,644.00
2023-04-28T11:09:54.807Z,638.00
2023-04-28T11:10:54.762Z,636.00
2023-04-28T11:11:54.784Z,635.00
2023-04-28T11:12:54.828Z,638.00
2023-04-28T11:13:54.790Z,642.00
2023-04-28T11:14:54.772Z,648.00
2023-04-28T11:15:54.802Z,660.00
2023-04-28T11:16:54.900Z,671.00
2023-04-28T11:17:54.794Z,672.00
2023-04-28T11:18:55.982Z,675.00
2023-04-28T11:19:54.739Z,670.00
2023-04-28T11:20:54.737Z,662.00
2023-04-28T11:21:54.745Z,655.00
2023-04-28T11:22:54.745Z,648.00
2023-04-28T11:23:54.690Z,629.00
2023-04-28T11:24:54.717Z,619.00
2023-04-28T11:25:54.712Z,610.00
2023-04-28T11:26:54.690Z,599.00
2023-04-28T11:27:54.679Z,593.00
2023-04-28T11:28:54.683Z,584.00
2023-04-28T11:29:54.656Z,579.00
2023-04-28T11:30:54.682Z,576.00
2023-04-28T11:31:54.642Z,571.00
2023-04-28T11:32:54.780Z,564.00
2023-04-28T11:33:54.641Z,557.00
2023-04-28T11:34:54.629Z,550.00
2023-04-28T11:35:54.586Z,545.00
2023-04-28T11:36:54.961Z,540.00
2023-04-28T11:37:54.590Z,536.00
2023-04-28T11:38:54.656Z,533.00
2023-04-28T11:39:54.627Z,526.00
2023-04-28T11:40:54.606Z,520.00
2023-04-28T11:41:54.630Z,514.00
2023-04-28T11:42:56.638Z,508.00
2023-04-28T11:43:54.686Z,504.00
2023-04-28T11:44:55.049Z,500.00
2023-04-28T11:45:54.682Z,497.00
2023-04-28T11:46:54.635Z,491.00
2023-04-28T11:47:54.661Z,489.00
2023-04-28T11:48:54.619Z,487.00
2023-04-28T11:49:54.631Z,484.00
2023-04-28T11:50:54.644Z,482.00
2023-04-28T11:51:54.590Z,479.00
2023-04-28T11:52:54.618Z,478.00
2023-04-28T11:53:54.603Z,475.00
2023-04-28T11:54:54.600Z,473.00
2023-04-28T11:55:54.611Z,470.00
2023-04-28T11:56:54.617Z,468.00
2023-04-28T11:57:54.587Z,465.00
2023-04-28T11:58:54.553Z,464.00
2023-04-28T11:59:54.583Z,462.00
2023-04-28T12:00:54.582Z,460.00
2023-04-28T12:01:54.567Z,461.00
2023-04-28T12:02:54.699Z,461.00
2023-04-28T12:03:54.548Z,456.00
2023-04-28T12:04:54.529Z,457.00
2023-04-28T12:05:54.683Z,457.00
2023-04-28T12:06:54.497Z,456.00
2023-04-28T12:07:54.512Z,455.00
2023-04-28T12:08:54.509Z,455.00
2023-04-28T12:09:54.491Z,456.00
2023-04-28T12:10:54.500Z,455.00
2023-04-28T12:11:54.477Z,455.00
2023-04-28T12:12:54.489Z,456.00
2023-04-28T12:13:54.484Z,456.00
2023-04-28T12:14:54.456Z,458.00
2023-04-28T12:15:54.460Z,459.00
2023-04-28T12:16:54.435Z,459.00
2023-04-28T12:17:54.491Z,460.00
2023-04-28T12:18:54.473Z,459.00
2023-04-28T12:19:54.534Z,458.00
2023-04-28T12:20:54.604Z,458.00
2023-04-28T12:21:54.612Z,459.00
2023-04-28T12:22:54.642Z,458.00
2023-04-28T12:23:54.723Z,456.00
2023-04-28T12:24:54.730Z,456.00
2023-04-28T12:25:54.786Z,456.00
2023-04-28T12:26:54.874Z,456.00
2023-04-28T12:27:54.885Z,455.00
2023-04-28T12:28:54.923Z,455.00